sensor_id;sensor_type;location;lat;lon;timestamp;P1;durP1;ratioP1;P2;durP2;ratioP2
47669;SDS011;33408;52.062;11.722;2023-04-09T00:02:24;49.25;;;30.83;;
47669;SDS011;33408;52.062;11.722;2023-04-09T00:04:53;42.40;;;29.45;;
47669;SDS011;33408;52.062;11.722;2023-04-09T00:07:19;48.20;;;29.90;;
47669;SDS011;33408;52.062;11.722;2023-04-09T00:09:46;46.20;;;28.85;;
47669;SDS011;33408;52.062;11.722;2023-04-09T00:12:12;45.28;;;29.63;;
47669;SDS011;33408;52.062;11.722;2023-04-09T00:14:39;48.25;;;30.00;;
47669;SDS011;33408;52.062;11.722;2023-04-09T00:17:06;44.97;;;29.27;;
47669;SDS011;33408;52.062;11.722;2023-04-09T00:19:32;46.90;;;29.15;;
47669;SDS011;33408;52.062;11.722;2023-04-09T00:22:00;41.63;;;27.33;;
47669;SDS011;33408;52.062;11.722;2023-04-09T00:24:27;49.28;;;30.63;;
47669;SDS011;33408;52.062;11.722;2023-04-09T00:26:53;43.95;;;29.33;;
47669;SDS011;33408;52.062;11.722;2023-04-09T00:29:20;42.38;;;28.00;;
47669;SDS011;33408;52.062;11.722;2023-04-09T00:31:47;43.20;;;27.00;;
47669;SDS011;33408;52.062;11.722;2023-04-09T00:34:13;41.10;;;27.15;;
47669;SDS011;33408;52.062;11.722;2023-04-09T00:36:40;42.15;;;27.95;;
47669;SDS011;33408;52.062;11.722;2023-04-09T00:39:08;42.92;;;28.40;;
47669;SDS011;33408;52.062;11.722;2023-04-09T00:41:35;45.53;;;29.30;;
47669;SDS011;33408;52.062;11.722;2023-04-09T00:44:02;44.65;;;29.00;;
47669;SDS011;33408;52.062;11.722;2023-04-09T00:46:28;52.40;;;30.48;;
47669;SDS011;33408;52.062;11.722;2023-04-09T00:48:56;43.67;;;30.10;;
47669;SDS011;33408;52.062;11.722;2023-04-09T00:51:23;44.60;;;28.67;;
47669;SDS011;33408;52.062;11.722;2023-04-09T00:53:50;44.67;;;29.27;;
47669;SDS011;33408;52.062;11.722;2023-04-09T00:56:19;43.20;;;28.10;;
47669;SDS011;33408;52.062;11.722;2023-04-09T00:58:48;47.15;;;28.50;;
47669;SDS011;33408;52.062;11.722;2023-04-09T01:01:15;42.95;;;28.15;;
47669;SDS011;33408;52.062;11.722;2023-04-09T01:03:41;44.80;;;28.92;;
47669;SDS011;33408;52.062;11.722;2023-04-09T01:06:09;43.58;;;27.90;;
47669;SDS011;33408;52.062;11.722;2023-04-09T01:08:47;41.50;;;27.40;;
47669;SDS011;33408;52.062;11.722;2023-04-09T01:11:27;39.75;;;27.85;;
47669;SDS011;33408;52.062;11.722;2023-04-09T01:14:04;43.78;;;28.25;;
47669;SDS011;33408;52.062;11.722;2023-04-09T01:16:37;42.05;;;29.23;;
47669;SDS011;33408;52.062;11.722;2023-04-09T01:19:14;44.47;;;29.80;;
47669;SDS011;33408;52.062;11.722;2023-04-09T01:21:53;42.10;;;27.35;;
47669;SDS011;33408;52.062;11.722;2023-04-09T01:24:26;40.38;;;27.38;;
47669;SDS011;33408;52.062;11.722;2023-04-09T01:27:08;44.15;;;29.02;;
47669;SDS011;33408;52.062;11.722;2023-04-09T01:29:38;44.47;;;28.70;;
47669;SDS011;33408;52.062;11.722;2023-04-09T01:32:09;45.60;;;29.45;;
47669;SDS011;33408;52.062;11.722;2023-04-09T01:34:37;45.05;;;28.65;;
47669;SDS011;33408;52.062;11.722;2023-04-09T01:37:04;41.45;;;28.25;;
47669;SDS011;33408;52.062;11.722;2023-04-09T01:39:32;44.40;;;30.27;;
47669;SDS011;33408;52.062;11.722;2023-04-09T01:41:58;42.20;;;28.20;;
47669;SDS011;33408;52.062;11.722;2023-04-09T01:44:27;43.50;;;27.77;;
47669;SDS011;33408;52.062;11.722;2023-04-09T01:46:56;41.05;;;28.40;;
47669;SDS011;33408;52.062;11.722;2023-04-09T01:49:24;38.65;;;28.35;;
47669;SDS011;33408;52.062;11.722;2023-04-09T01:51:51;42.83;;;29.23;;
47669;SDS011;33408;52.062;11.722;2023-04-09T01:54:18;47.30;;;29.42;;
47669;SDS011;33408;52.062;11.722;2023-04-09T01:56:45;44.75;;;30.23;;
47669;SDS011;33408;52.062;11.722;2023-04-09T01:59:12;42.70;;;28.58;;
47669;SDS011;33408;52.062;11.722;2023-04-09T02:01:40;42.40;;;28.95;;
47669;SDS011;33408;52.062;11.722;2023-04-09T02:04:14;44.72;;;29.60;;
47669;SDS011;33408;52.062;11.722;2023-04-09T02:06:46;48.88;;;29.92;;
47669;SDS011;33408;52.062;11.722;2023-04-09T02:09:17;48.47;;;31.30;;
47669;SDS011;33408;52.062;11.722;2023-04-09T02:11:46;45.70;;;30.65;;
47669;SDS011;33408;52.062;11.722;2023-04-09T02:14:15;51.60;;;31.17;;
47669;SDS011;33408;52.062;11.722;2023-04-09T02:16:43;48.85;;;31.55;;
47669;SDS011;33408;52.062;11.722;2023-04-09T02:19:11;51.97;;;31.33;;
47669;SDS011;33408;52.062;11.722;2023-04-09T02:21:39;52.28;;;33.30;;
47669;SDS011;33408;52.062;11.722;2023-04-09T02:24:05;56.15;;;33.38;;
47669;SDS011;33408;52.062;11.722;2023-04-09T02:26:32;65.60;;;36.28;;
47669;SDS011;33408;52.062;11.722;2023-04-09T02:28:58;57.03;;;33.50;;
47669;SDS011;33408;52.062;11.722;2023-04-09T02:31:25;57.60;;;35.42;;
47669;SDS011;33408;52.062;11.722;2023-04-09T02:33:52;59.63;;;34.63;;
47669;SDS011;33408;52.062;11.722;2023-04-09T02:36:19;56.25;;;35.63;;
47669;SDS011;33408;52.062;11.722;2023-04-09T02:38:47;53.00;;;33.53;;
47669;SDS011;33408;52.062;11.722;2023-04-09T02:41:13;53.85;;;34.72;;
47669;SDS011;33408;52.062;11.722;2023-04-09T02:43:40;53.25;;;36.00;;
47669;SDS011;33408;52.062;11.722;2023-04-09T02:46:07;55.42;;;35.83;;
47669;SDS011;33408;52.062;11.722;2023-04-09T02:48:33;57.55;;;36.28;;
47669;SDS011;33408;52.062;11.722;2023-04-09T02:51:00;55.92;;;35.83;;
47669;SDS011;33408;52.062;11.722;2023-04-09T02:53:26;48.97;;;34.20;;
47669;SDS011;33408;52.062;11.722;2023-04-09T02:55:54;52.58;;;35.00;;
47669;SDS011;33408;52.062;11.722;2023-04-09T02:58:21;60.15;;;37.75;;
47669;SDS011;33408;52.062;11.722;2023-04-09T03:00:47;54.63;;;35.00;;
47669;SDS011;33408;52.062;11.722;2023-04-09T03:03:14;57.40;;;36.63;;
47669;SDS011;33408;52.062;11.722;2023-04-09T03:05:41;54.03;;;34.92;;
47669;SDS011;33408;52.062;11.722;2023-04-09T03:08:08;50.50;;;33.20;;
47669;SDS011;33408;52.062;11.722;2023-04-09T03:10:35;52.10;;;34.85;;
47669;SDS011;33408;52.062;11.722;2023-04-09T03:13:02;52.58;;;34.45;;
47669;SDS011;33408;52.062;11.722;2023-04-09T03:15:29;60.42;;;37.03;;
47669;SDS011;33408;52.062;11.722;2023-04-09T03:17:56;55.88;;;35.08;;
47669;SDS011;33408;52.062;11.722;2023-04-09T03:20:22;57.17;;;35.72;;
47669;SDS011;33408;52.062;11.722;2023-04-09T03:22:49;62.63;;;35.97;;
47669;SDS011;33408;52.062;11.722;2023-04-09T03:25:15;52.90;;;35.22;;
47669;SDS011;33408;52.062;11.722;2023-04-09T03:27:43;62.70;;;37.72;;
47669;SDS011;33408;52.062;11.722;2023-04-09T03:30:11;52.97;;;34.63;;
47669;SDS011;33408;52.062;11.722;2023-04-09T03:32:38;63.25;;;37.72;;
47669;SDS011;33408;52.062;11.722;2023-04-09T03:35:05;66.93;;;40.92;;
47669;SDS011;33408;52.062;11.722;2023-04-09T03:37:32;60.58;;;37.95;;
47669;SDS011;33408;52.062;11.722;2023-04-09T03:39:58;65.80;;;40.58;;
47669;SDS011;33408;52.062;11.722;2023-04-09T03:42:25;67.82;;;39.80;;
47669;SDS011;33408;52.062;11.722;2023-04-09T03:44:52;67.72;;;39.97;;
47669;SDS011;33408;52.062;11.722;2023-04-09T03:47:20;69.68;;;42.15;;
47669;SDS011;33408;52.062;11.722;2023-04-09T03:49:47;62.85;;;39.88;;
47669;SDS011;33408;52.062;11.722;2023-04-09T03:52:13;65.30;;;41.35;;
47669;SDS011;33408;52.062;11.722;2023-04-09T03:54:40;71.28;;;40.15;;
47669;SDS011;33408;52.062;11.722;2023-04-09T03:57:07;67.07;;;40.20;;
47669;SDS011;33408;52.062;11.722;2023-04-09T03:59:34;64.80;;;41.05;;
47669;SDS011;33408;52.062;11.722;2023-04-09T04:02:00;65.93;;;40.95;;
47669;SDS011;33408;52.062;11.722;2023-04-09T04:04:28;64.47;;;39.03;;
47669;SDS011;33408;52.062;11.722;2023-04-09T04:06:55;69.40;;;42.30;;
47669;SDS011;33408;52.062;11.722;2023-04-09T04:09:21;66.28;;;41.55;;
47669;SDS011;33408;52.062;11.722;2023-04-09T04:11:48;64.78;;;41.80;;
47669;SDS011;33408;52.062;11.722;2023-04-09T04:14:14;66.30;;;42.30;;
47669;SDS011;33408;52.062;11.722;2023-04-09T04:16:41;66.50;;;42.22;;
47669;SDS011;33408;52.062;11.722;2023-04-09T04:19:08;69.20;;;43.83;;
47669;SDS011;33408;52.062;11.722;2023-04-09T04:21:36;63.65;;;41.63;;
47669;SDS011;33408;52.062;11.722;2023-04-09T04:24:03;69.90;;;41.40;;
47669;SDS011;33408;52.062;11.722;2023-04-09T04:26:30;65.50;;;41.78;;
47669;SDS011;33408;52.062;11.722;2023-04-09T04:28:56;81.13;;;47.33;;
47669;SDS011;33408;52.062;11.722;2023-04-09T04:31:23;68.07;;;43.22;;
47669;SDS011;33408;52.062;11.722;2023-04-09T04:33:49;65.25;;;41.33;;
47669;SDS011;33408;52.062;11.722;2023-04-09T04:36:16;66.53;;;42.45;;
47669;SDS011;33408;52.062;11.722;2023-04-09T04:38:44;74.22;;;41.03;;
47669;SDS011;33408;52.062;11.722;2023-04-09T04:41:10;70.93;;;41.88;;
47669;SDS011;33408;52.062;11.722;2023-04-09T04:43:37;64.40;;;42.10;;
47669;SDS011;33408;52.062;11.722;2023-04-09T04:46:05;68.53;;;42.55;;
47669;SDS011;33408;52.062;11.722;2023-04-09T04:48:31;64.72;;;41.10;;
47669;SDS011;33408;52.062;11.722;2023-04-09T04:50:58;66.80;;;42.00;;
47669;SDS011;33408;52.062;11.722;2023-04-09T04:53:26;60.65;;;41.20;;
47669;SDS011;33408;52.062;11.722;2023-04-09T04:55:54;61.60;;;41.20;;
47669;SDS011;33408;52.062;11.722;2023-04-09T04:58:21;57.80;;;39.95;;
47669;SDS011;33408;52.062;11.722;2023-04-09T05:00:47;57.90;;;39.33;;
47669;SDS011;33408;52.062;11.722;2023-04-09T05:03:14;65.35;;;42.15;;
47669;SDS011;33408;52.062;11.722;2023-04-09T05:05:40;57.03;;;38.85;;
47669;SDS011;33408;52.062;11.722;2023-04-09T05:08:07;59.50;;;39.65;;
47669;SDS011;33408;52.062;11.722;2023-04-09T05:10:34;61.72;;;41.08;;
47669;SDS011;33408;52.062;11.722;2023-04-09T05:13:02;57.30;;;38.70;;
47669;SDS011;33408;52.062;11.722;2023-04-09T05:15:28;57.92;;;38.33;;
47669;SDS011;33408;52.062;11.722;2023-04-09T05:17:55;57.72;;;38.97;;
47669;SDS011;33408;52.062;11.722;2023-04-09T05:20:22;51.40;;;36.67;;
47669;SDS011;33408;52.062;11.722;2023-04-09T05:22:48;60.25;;;39.25;;
47669;SDS011;33408;52.062;11.722;2023-04-09T05:25:15;57.97;;;38.28;;
47669;SDS011;33408;52.062;11.722;2023-04-09T05:27:42;52.28;;;36.75;;
47669;SDS011;33408;52.062;11.722;2023-04-09T05:30:10;53.70;;;37.65;;
47669;SDS011;33408;52.062;11.722;2023-04-09T05:32:37;63.90;;;40.10;;
47669;SDS011;33408;52.062;11.722;2023-04-09T05:35:04;57.17;;;39.50;;
47669;SDS011;33408;52.062;11.722;2023-04-09T05:37:31;53.42;;;37.60;;
47669;SDS011;33408;52.062;11.722;2023-04-09T05:39:57;56.22;;;40.38;;
47669;SDS011;33408;52.062;11.722;2023-04-09T05:42:24;65.00;;;40.97;;
47669;SDS011;33408;52.062;11.722;2023-04-09T05:44:50;63.30;;;44.17;;
47669;SDS011;33408;52.062;11.722;2023-04-09T05:47:18;61.08;;;42.15;;
47669;SDS011;33408;52.062;11.722;2023-04-09T05:49:45;66.32;;;45.17;;
47669;SDS011;33408;52.062;11.722;2023-04-09T05:52:12;60.42;;;42.53;;
47669;SDS011;33408;52.062;11.722;2023-04-09T05:54:39;68.30;;;46.13;;
47669;SDS011;33408;52.062;11.722;2023-04-09T05:57:06;69.68;;;46.90;;
47669;SDS011;33408;52.062;11.722;2023-04-09T05:59:32;67.90;;;47.22;;
47669;SDS011;33408;52.062;11.722;2023-04-09T06:01:59;67.28;;;48.13;;
47669;SDS011;33408;52.062;11.722;2023-04-09T06:04:27;67.45;;;48.03;;
47669;SDS011;33408;52.062;11.722;2023-04-09T06:06:53;73.85;;;49.97;;
47669;SDS011;33408;52.062;11.722;2023-04-09T06:09:24;64.88;;;45.83;;
47669;SDS011;33408;52.062;11.722;2023-04-09T06:11:51;65.40;;;45.10;;
47669;SDS011;33408;52.062;11.722;2023-04-09T06:14:17;68.05;;;46.90;;
47669;SDS011;33408;52.062;11.722;2023-04-09T06:16:44;66.85;;;45.83;;
47669;SDS011;33408;52.062;11.722;2023-04-09T06:19:10;67.45;;;44.78;;
47669;SDS011;33408;52.062;11.722;2023-04-09T06:21:38;67.90;;;45.58;;
47669;SDS011;33408;52.062;11.722;2023-04-09T06:24:06;66.13;;;45.28;;
47669;SDS011;33408;52.062;11.722;2023-04-09T06:26:33;60.85;;;44.92;;
47669;SDS011;33408;52.062;11.722;2023-04-09T06:28:59;65.90;;;45.47;;
47669;SDS011;33408;52.062;11.722;2023-04-09T06:31:26;57.67;;;43.92;;
47669;SDS011;33408;52.062;11.722;2023-04-09T06:33:52;59.83;;;43.38;;
47669;SDS011;33408;52.062;11.722;2023-04-09T06:36:19;57.88;;;41.85;;
47669;SDS011;33408;52.062;11.722;2023-04-09T06:38:47;60.78;;;44.63;;
47669;SDS011;33408;52.062;11.722;2023-04-09T06:41:13;59.92;;;43.90;;
47669;SDS011;33408;52.062;11.722;2023-04-09T06:43:40;61.20;;;45.97;;
47669;SDS011;33408;52.062;11.722;2023-04-09T06:46:07;82.22;;;55.67;;
47669;SDS011;33408;52.062;11.722;2023-04-09T06:48:33;77.55;;;54.58;;
47669;SDS011;33408;52.062;11.722;2023-04-09T06:51:00;76.32;;;54.08;;
47669;SDS011;33408;52.062;11.722;2023-04-09T06:53:27;61.22;;;46.28;;
47669;SDS011;33408;52.062;11.722;2023-04-09T06:55:55;62.13;;;44.95;;
47669;SDS011;33408;52.062;11.722;2023-04-09T06:58:21;61.42;;;45.08;;
47669;SDS011;33408;52.062;11.722;2023-04-09T07:00:48;64.82;;;47.95;;
47669;SDS011;33408;52.062;11.722;2023-04-09T07:03:14;62.85;;;46.95;;
47669;SDS011;33408;52.062;11.722;2023-04-09T07:05:41;64.32;;;46.72;;
47669;SDS011;33408;52.062;11.722;2023-04-09T07:08:08;62.25;;;43.17;;
47669;SDS011;33408;52.062;11.722;2023-04-09T07:10:34;60.78;;;45.47;;
47669;SDS011;33408;52.062;11.722;2023-04-09T07:13:02;59.83;;;45.92;;
47669;SDS011;33408;52.062;11.722;2023-04-09T07:15:29;55.47;;;43.33;;
47669;SDS011;33408;52.062;11.722;2023-04-09T07:17:55;52.88;;;40.60;;
47669;SDS011;33408;52.062;11.722;2023-04-09T07:20:22;53.42;;;40.70;;
47669;SDS011;33408;52.062;11.722;2023-04-09T07:22:49;52.35;;;40.65;;
47669;SDS011;33408;52.062;11.722;2023-04-09T07:25:16;51.97;;;40.35;;
47669;SDS011;33408;52.062;11.722;2023-04-09T07:27:42;52.10;;;40.13;;
47669;SDS011;33408;52.062;11.722;2023-04-09T07:30:10;49.70;;;37.88;;
47669;SDS011;33408;52.062;11.722;2023-04-09T07:32:37;52.28;;;40.65;;
47669;SDS011;33408;52.062;11.722;2023-04-09T07:35:05;51.50;;;40.42;;
47669;SDS011;33408;52.062;11.722;2023-04-09T07:37:33;57.00;;;43.05;;
47669;SDS011;33408;52.062;11.722;2023-04-09T07:40:00;50.17;;;40.13;;
47669;SDS011;33408;52.062;11.722;2023-04-09T07:42:28;54.60;;;41.72;;
47669;SDS011;33408;52.062;11.722;2023-04-09T07:44:54;51.72;;;41.00;;
47669;SDS011;33408;52.062;11.722;2023-04-09T07:47:23;53.72;;;41.70;;
47669;SDS011;33408;52.062;11.722;2023-04-09T07:49:49;50.47;;;40.03;;
47669;SDS011;33408;52.062;11.722;2023-04-09T07:52:16;52.10;;;40.17;;
47669;SDS011;33408;52.062;11.722;2023-04-09T07:54:43;57.22;;;41.72;;
47669;SDS011;33408;52.062;11.722;2023-04-09T07:57:10;54.47;;;42.88;;
47669;SDS011;33408;52.062;11.722;2023-04-09T07:59:36;53.97;;;41.50;;
47669;SDS011;33408;52.062;11.722;2023-04-09T08:02:03;55.33;;;42.22;;
47669;SDS011;33408;52.062;11.722;2023-04-09T08:04:31;54.30;;;42.08;;
47669;SDS011;33408;52.062;11.722;2023-04-09T08:06:58;54.30;;;41.33;;
47669;SDS011;33408;52.062;11.722;2023-04-09T08:09:24;52.20;;;39.13;;
47669;SDS011;33408;52.062;11.722;2023-04-09T08:11:51;56.33;;;40.90;;
47669;SDS011;33408;52.062;11.722;2023-04-09T08:14:18;53.30;;;40.15;;
47669;SDS011;33408;52.062;11.722;2023-04-09T08:16:45;56.25;;;41.55;;
47669;SDS011;33408;52.062;11.722;2023-04-09T08:19:14;50.90;;;39.15;;
47669;SDS011;33408;52.062;11.722;2023-04-09T08:21:42;52.33;;;40.05;;
47669;SDS011;33408;52.062;11.722;2023-04-09T08:24:10;49.03;;;40.15;;
47669;SDS011;33408;52.062;11.722;2023-04-09T08:26:38;51.85;;;39.03;;
47669;SDS011;33408;52.062;11.722;2023-04-09T08:29:05;49.42;;;38.47;;
47669;SDS011;33408;52.062;11.722;2023-04-09T08:31:32;52.70;;;39.67;;
47669;SDS011;33408;52.062;11.722;2023-04-09T08:33:59;55.55;;;42.08;;
47669;SDS011;33408;52.062;11.722;2023-04-09T08:36:25;48.67;;;38.92;;
47669;SDS011;33408;52.062;11.722;2023-04-09T08:38:53;47.55;;;39.67;;
47669;SDS011;33408;52.062;11.722;2023-04-09T08:41:21;47.72;;;37.85;;
47669;SDS011;33408;52.062;11.722;2023-04-09T08:43:48;48.25;;;37.03;;
47669;SDS011;33408;52.062;11.722;2023-04-09T08:46:16;48.00;;;37.35;;
47669;SDS011;33408;52.062;11.722;2023-04-09T08:48:43;44.35;;;35.15;;
47669;SDS011;33408;52.062;11.722;2023-04-09T08:51:13;45.92;;;34.42;;
47669;SDS011;33408;52.062;11.722;2023-04-09T08:53:41;45.58;;;35.97;;
47669;SDS011;33408;52.062;11.722;2023-04-09T08:56:13;42.53;;;35.35;;
47669;SDS011;33408;52.062;11.722;2023-04-09T08:58:43;42.70;;;34.50;;
47669;SDS011;33408;52.062;11.722;2023-04-09T09:01:18;45.67;;;35.27;;
47669;SDS011;33408;52.062;11.722;2023-04-09T09:03:55;44.78;;;35.38;;
47669;SDS011;33408;52.062;11.722;2023-04-09T09:06:25;47.20;;;37.10;;
47669;SDS011;33408;52.062;11.722;2023-04-09T09:09:03;47.10;;;36.53;;
47669;SDS011;33408;52.062;11.722;2023-04-09T09:11:32;49.38;;;37.83;;
47669;SDS011;33408;52.062;11.722;2023-04-09T09:14:01;47.83;;;36.70;;
47669;SDS011;33408;52.062;11.722;2023-04-09T09:16:29;44.58;;;35.17;;
47669;SDS011;33408;52.062;11.722;2023-04-09T09:18:57;43.53;;;34.50;;
47669;SDS011;33408;52.062;11.722;2023-04-09T09:21:24;43.22;;;35.40;;
47669;SDS011;33408;52.062;11.722;2023-04-09T09:23:51;41.95;;;34.30;;
47669;SDS011;33408;52.062;11.722;2023-04-09T09:26:19;46.00;;;36.15;;
47669;SDS011;33408;52.062;11.722;2023-04-09T09:28:48;44.63;;;35.58;;
47669;SDS011;33408;52.062;11.722;2023-04-09T09:31:16;43.95;;;34.20;;
47669;SDS011;33408;52.062;11.722;2023-04-09T09:33:44;41.85;;;34.80;;
47669;SDS011;33408;52.062;11.722;2023-04-09T09:36:12;39.90;;;31.40;;
47669;SDS011;33408;52.062;11.722;2023-04-09T09:38:49;41.25;;;33.53;;
47669;SDS011;33408;52.062;11.722;2023-04-09T09:41:18;39.65;;;32.70;;
47669;SDS011;33408;52.062;11.722;2023-04-09T09:43:45;39.25;;;31.48;;
47669;SDS011;33408;52.062;11.722;2023-04-09T09:46:14;37.42;;;31.25;;
47669;SDS011;33408;52.062;11.722;2023-04-09T09:48:41;37.72;;;31.00;;
47669;SDS011;33408;52.062;11.722;2023-04-09T09:51:09;34.92;;;30.08;;
47669;SDS011;33408;52.062;11.722;2023-04-09T09:53:37;36.97;;;29.48;;
47669;SDS011;33408;52.062;11.722;2023-04-09T09:56:04;38.92;;;25.48;;
47669;SDS011;33408;52.062;11.722;2023-04-09T09:58:35;39.28;;;24.38;;
47669;SDS011;33408;52.062;11.722;2023-04-09T10:01:06;37.70;;;29.92;;
47669;SDS011;33408;52.062;11.722;2023-04-09T10:03:36;36.03;;;27.40;;
47669;SDS011;33408;52.062;11.722;2023-04-09T10:06:04;33.00;;;26.45;;
47669;SDS011;33408;52.062;11.722;2023-04-09T10:08:32;30.67;;;25.48;;
47669;SDS011;33408;52.062;11.722;2023-04-09T10:11:02;32.13;;;27.52;;
47669;SDS011;33408;52.062;11.722;2023-04-09T10:13:32;34.55;;;29.08;;
47669;SDS011;33408;52.062;11.722;2023-04-09T10:16:00;44.40;;;28.13;;
47669;SDS011;33408;52.062;11.722;2023-04-09T10:18:27;36.85;;;30.23;;
47669;SDS011;33408;52.062;11.722;2023-04-09T10:20:57;39.65;;;28.58;;
47669;SDS011;33408;52.062;11.722;2023-04-09T10:23:30;33.40;;;26.73;;
47669;SDS011;33408;52.062;11.722;2023-04-09T10:25:59;32.10;;;26.77;;
47669;SDS011;33408;52.062;11.722;2023-04-09T10:28:25;33.00;;;26.20;;
47669;SDS011;33408;52.062;11.722;2023-04-09T10:30:52;32.83;;;25.70;;
47669;SDS011;33408;52.062;11.722;2023-04-09T10:33:21;31.10;;;26.15;;
47669;SDS011;33408;52.062;11.722;2023-04-09T10:35:50;33.30;;;25.00;;
47669;SDS011;33408;52.062;11.722;2023-04-09T10:38:32;33.70;;;27.02;;
47669;SDS011;33408;52.062;11.722;2023-04-09T10:41:05;29.65;;;24.60;;
47669;SDS011;33408;52.062;11.722;2023-04-09T10:43:33;31.65;;;25.33;;
47669;SDS011;33408;52.062;11.722;2023-04-09T10:46:03;30.02;;;23.92;;
47669;SDS011;33408;52.062;11.722;2023-04-09T10:48:31;30.35;;;25.27;;
47669;SDS011;33408;52.062;11.722;2023-04-09T10:51:00;32.28;;;26.05;;
47669;SDS011;33408;52.062;11.722;2023-04-09T10:53:30;29.33;;;24.58;;
47669;SDS011;33408;52.062;11.722;2023-04-09T10:55:59;29.75;;;25.15;;
47669;SDS011;33408;52.062;11.722;2023-04-09T10:58:26;31.92;;;26.17;;
47669;SDS011;33408;52.062;11.722;2023-04-09T11:00:53;30.02;;;25.70;;
47669;SDS011;33408;52.062;11.722;2023-04-09T11:03:22;31.35;;;25.67;;
47669;SDS011;33408;52.062;11.722;2023-04-09T11:05:51;32.95;;;27.52;;
47669;SDS011;33408;52.062;11.722;2023-04-09T11:08:20;30.88;;;26.73;;
47669;SDS011;33408;52.062;11.722;2023-04-09T11:10:49;32.72;;;27.25;;
47669;SDS011;33408;52.062;11.722;2023-04-09T11:13:18;33.65;;;27.92;;
47669;SDS011;33408;52.062;11.722;2023-04-09T11:15:45;33.13;;;27.15;;
47669;SDS011;33408;52.062;11.722;2023-04-09T11:18:18;33.20;;;28.35;;
47669;SDS011;33408;52.062;11.722;2023-04-09T11:20:46;31.60;;;26.80;;
47669;SDS011;33408;52.062;11.722;2023-04-09T11:23:13;31.83;;;27.90;;
47669;SDS011;33408;52.062;11.722;2023-04-09T11:25:40;31.75;;;27.35;;
47669;SDS011;33408;52.062;11.722;2023-04-09T11:28:08;33.05;;;28.23;;
47669;SDS011;33408;52.062;11.722;2023-04-09T11:30:35;33.08;;;27.98;;
47669;SDS011;33408;52.062;11.722;2023-04-09T11:33:02;33.55;;;28.00;;
47669;SDS011;33408;52.062;11.722;2023-04-09T11:35:29;36.25;;;30.02;;
47669;SDS011;33408;52.062;11.722;2023-04-09T11:37:55;33.03;;;27.75;;
47669;SDS011;33408;52.062;11.722;2023-04-09T11:40:22;34.35;;;28.10;;
47669;SDS011;33408;52.062;11.722;2023-04-09T11:42:51;32.58;;;27.48;;
47669;SDS011;33408;52.062;11.722;2023-04-09T11:45:23;34.30;;;28.38;;
47669;SDS011;33408;52.062;11.722;2023-04-09T11:47:53;33.05;;;27.85;;
47669;SDS011;33408;52.062;11.722;2023-04-09T11:50:20;32.63;;;26.90;;
47669;SDS011;33408;52.062;11.722;2023-04-09T11:52:47;35.78;;;28.55;;
47669;SDS011;33408;52.062;11.722;2023-04-09T11:55:21;32.85;;;28.45;;
47669;SDS011;33408;52.062;11.722;2023-04-09T11:57:49;32.47;;;27.77;;
47669;SDS011;33408;52.062;11.722;2023-04-09T12:00:17;31.23;;;26.92;;
47669;SDS011;33408;52.062;11.722;2023-04-09T12:02:46;32.03;;;27.13;;
47669;SDS011;33408;52.062;11.722;2023-04-09T12:05:19;31.10;;;26.77;;
47669;SDS011;33408;52.062;11.722;2023-04-09T12:07:47;38.72;;;28.17;;
47669;SDS011;33408;52.062;11.722;2023-04-09T12:10:14;32.85;;;26.95;;
47669;SDS011;33408;52.062;11.722;2023-04-09T12:12:41;33.92;;;27.10;;
47669;SDS011;33408;52.062;11.722;2023-04-09T12:15:09;33.15;;;26.77;;
47669;SDS011;33408;52.062;11.722;2023-04-09T12:17:37;35.92;;;28.08;;
47669;SDS011;33408;52.062;11.722;2023-04-09T12:20:06;33.50;;;26.90;;
47669;SDS011;33408;52.062;11.722;2023-04-09T12:22:34;28.88;;;25.35;;
47669;SDS011;33408;52.062;11.722;2023-04-09T12:25:05;31.75;;;26.40;;
47669;SDS011;33408;52.062;11.722;2023-04-09T12:27:32;35.40;;;29.20;;
47669;SDS011;33408;52.062;11.722;2023-04-09T12:29:58;31.13;;;27.27;;
47669;SDS011;33408;52.062;11.722;2023-04-09T12:32:25;30.65;;;25.90;;
47669;SDS011;33408;52.062;11.722;2023-04-09T12:34:52;31.52;;;27.55;;
47669;SDS011;33408;52.062;11.722;2023-04-09T12:37:20;32.15;;;26.48;;
47669;SDS011;33408;52.062;11.722;2023-04-09T12:39:46;31.02;;;24.48;;
47669;SDS011;33408;52.062;11.722;2023-04-09T12:42:13;28.60;;;23.88;;
47669;SDS011;33408;52.062;11.722;2023-04-09T12:44:40;30.83;;;24.77;;
47669;SDS011;33408;52.062;11.722;2023-04-09T12:47:06;30.50;;;23.67;;
47669;SDS011;33408;52.062;11.722;2023-04-09T12:49:33;28.85;;;24.80;;
47669;SDS011;33408;52.062;11.722;2023-04-09T12:51:59;29.77;;;24.92;;
47669;SDS011;33408;52.062;11.722;2023-04-09T12:54:27;30.00;;;26.02;;
47669;SDS011;33408;52.062;11.722;2023-04-09T12:56:54;27.58;;;23.90;;
47669;SDS011;33408;52.062;11.722;2023-04-09T12:59:21;27.88;;;23.15;;
47669;SDS011;33408;52.062;11.722;2023-04-09T13:01:47;26.30;;;22.13;;
47669;SDS011;33408;52.062;11.722;2023-04-09T13:04:14;25.55;;;20.95;;
47669;SDS011;33408;52.062;11.722;2023-04-09T13:06:40;25.30;;;20.20;;
47669;SDS011;33408;52.062;11.722;2023-04-09T13:09:07;26.02;;;22.13;;
47669;SDS011;33408;52.062;11.722;2023-04-09T13:11:35;25.55;;;21.77;;
47669;SDS011;33408;52.062;11.722;2023-04-09T13:14:02;26.48;;;21.02;;
47669;SDS011;33408;52.062;11.722;2023-04-09T13:16:28;23.83;;;18.90;;
47669;SDS011;33408;52.062;11.722;2023-04-09T13:18:55;21.90;;;17.52;;
47669;SDS011;33408;52.062;11.722;2023-04-09T13:21:22;21.73;;;16.95;;
47669;SDS011;33408;52.062;11.722;2023-04-09T13:23:48;21.27;;;17.52;;
47669;SDS011;33408;52.062;11.722;2023-04-09T13:26:16;22.35;;;18.55;;
47669;SDS011;33408;52.062;11.722;2023-04-09T13:28:43;23.75;;;18.50;;
47669;SDS011;33408;52.062;11.722;2023-04-09T13:31:10;23.35;;;18.52;;
47669;SDS011;33408;52.062;11.722;2023-04-09T13:33:37;23.65;;;18.85;;
47669;SDS011;33408;52.062;11.722;2023-04-09T13:36:05;20.42;;;16.63;;
47669;SDS011;33408;52.062;11.722;2023-04-09T13:38:32;21.42;;;17.77;;
47669;SDS011;33408;52.062;11.722;2023-04-09T13:40:58;24.52;;;19.88;;
47669;SDS011;33408;52.062;11.722;2023-04-09T13:43:25;26.17;;;19.67;;
47669;SDS011;33408;52.062;11.722;2023-04-09T13:45:54;25.13;;;19.33;;
47669;SDS011;33408;52.062;11.722;2023-04-09T13:48:21;22.77;;;17.40;;
47669;SDS011;33408;52.062;11.722;2023-04-09T13:50:48;21.83;;;17.70;;
47669;SDS011;33408;52.062;11.722;2023-04-09T13:53:15;22.90;;;18.35;;
47669;SDS011;33408;52.062;11.722;2023-04-09T13:55:42;24.17;;;18.83;;
47669;SDS011;33408;52.062;11.722;2023-04-09T13:58:08;20.52;;;17.60;;
47669;SDS011;33408;52.062;11.722;2023-04-09T14:00:35;23.35;;;17.58;;
47669;SDS011;33408;52.062;11.722;2023-04-09T14:03:03;20.45;;;16.67;;
47669;SDS011;33408;52.062;11.722;2023-04-09T14:05:30;21.50;;;17.25;;
47669;SDS011;33408;52.062;11.722;2023-04-09T14:07:57;20.40;;;16.20;;
47669;SDS011;33408;52.062;11.722;2023-04-09T14:10:24;20.70;;;16.40;;
47669;SDS011;33408;52.062;11.722;2023-04-09T14:12:51;18.83;;;15.38;;